sensor_id;sensor_type;location;lat;lon;timestamp;P1;durP1;ratioP1;P2;durP2;ratioP2
25231;SDS011;13176;51.140;6.290;2023-12-22T00:00:55;26.63;;;24.90;;
25231;SDS011;13176;51.140;6.290;2023-12-22T00:03:22;26.40;;;24.40;;
25231;SDS011;13176;51.140;6.290;2023-12-22T00:05:49;29.48;;;27.08;;
25231;SDS011;13176;51.140;6.290;2023-12-22T00:08:15;27.95;;;26.02;;
25231;SDS011;13176;51.140;6.290;2023-12-22T00:10:41;29.10;;;26.98;;
25231;SDS011;13176;51.140;6.290;2023-12-22T00:13:08;29.95;;;28.23;;
25231;SDS011;13176;51.140;6.290;2023-12-22T00:15:34;30.40;;;28.52;;
25231;SDS011;13176;51.140;6.290;2023-12-22T00:18:01;30.67;;;28.38;;
25231;SDS011;13176;51.140;6.290;2023-12-22T00:20:27;30.23;;;28.23;;
25231;SDS011;13176;51.140;6.290;2023-12-22T00:22:54;30.35;;;28.00;;
25231;SDS011;13176;51.140;6.290;2023-12-22T00:25:20;32.47;;;30.20;;
25231;SDS011;13176;51.140;6.290;2023-12-22T00:27:47;38.78;;;36.05;;
25231;SDS011;13176;51.140;6.290;2023-12-22T00:30:14;32.50;;;30.30;;
25231;SDS011;13176;51.140;6.290;2023-12-22T00:32:40;31.73;;;29.70;;
25231;SDS011;13176;51.140;6.290;2023-12-22T00:35:07;35.30;;;32.75;;
25231;SDS011;13176;51.140;6.290;2023-12-22T00:37:33;32.17;;;30.02;;
25231;SDS011;13176;51.140;6.290;2023-12-22T00:40:00;32.95;;;30.52;;
25231;SDS011;13176;51.140;6.290;2023-12-22T00:42:27;35.08;;;32.58;;
25231;SDS011;13176;51.140;6.290;2023-12-22T00:44:53;33.45;;;31.50;;
25231;SDS011;13176;51.140;6.290;2023-12-22T00:47:20;35.25;;;32.65;;
25231;SDS011;13176;51.140;6.290;2023-12-22T00:49:46;32.70;;;30.70;;
25231;SDS011;13176;51.140;6.290;2023-12-22T00:52:13;34.63;;;31.42;;
25231;SDS011;13176;51.140;6.290;2023-12-22T00:54:39;32.47;;;29.95;;
25231;SDS011;13176;51.140;6.290;2023-12-22T00:57:05;29.95;;;27.65;;
25231;SDS011;13176;51.140;6.290;2023-12-22T00:59:32;32.65;;;30.35;;
25231;SDS011;13176;51.140;6.290;2023-12-22T01:01:59;33.72;;;31.38;;
25231;SDS011;13176;51.140;6.290;2023-12-22T01:04:25;33.03;;;30.63;;
25231;SDS011;13176;51.140;6.290;2023-12-22T01:06:52;35.08;;;32.20;;
25231;SDS011;13176;51.140;6.290;2023-12-22T01:09:19;34.67;;;32.22;;
25231;SDS011;13176;51.140;6.290;2023-12-22T01:11:46;36.47;;;33.55;;
25231;SDS011;13176;51.140;6.290;2023-12-22T01:14:12;34.38;;;32.03;;
25231;SDS011;13176;51.140;6.290;2023-12-22T01:16:40;36.15;;;32.95;;
25231;SDS011;13176;51.140;6.290;2023-12-22T01:19:06;32.25;;;29.70;;
25231;SDS011;13176;51.140;6.290;2023-12-22T01:21:33;35.45;;;32.72;;
25231;SDS011;13176;51.140;6.290;2023-12-22T01:23:59;34.08;;;31.10;;
25231;SDS011;13176;51.140;6.290;2023-12-22T01:26:26;32.28;;;29.52;;
25231;SDS011;13176;51.140;6.290;2023-12-22T01:28:52;34.90;;;32.28;;
25231;SDS011;13176;51.140;6.290;2023-12-22T01:31:18;37.40;;;34.10;;
25231;SDS011;13176;51.140;6.290;2023-12-22T01:33:45;35.25;;;32.85;;
25231;SDS011;13176;51.140;6.290;2023-12-22T01:36:12;35.15;;;32.63;;
25231;SDS011;13176;51.140;6.290;2023-12-22T01:38:38;35.83;;;32.83;;
25231;SDS011;13176;51.140;6.290;2023-12-22T01:41:05;32.70;;;30.40;;
25231;SDS011;13176;51.140;6.290;2023-12-22T01:43:31;34.50;;;31.25;;
25231;SDS011;13176;51.140;6.290;2023-12-22T01:45:58;36.88;;;33.83;;
25231;SDS011;13176;51.140;6.290;2023-12-22T01:48:27;34.20;;;31.45;;
25231;SDS011;13176;51.140;6.290;2023-12-22T01:50:55;33.10;;;30.15;;
25231;SDS011;13176;51.140;6.290;2023-12-22T01:53:22;35.28;;;32.22;;
25231;SDS011;13176;51.140;6.290;2023-12-22T01:55:51;33.50;;;30.83;;
25231;SDS011;13176;51.140;6.290;2023-12-22T01:58:20;33.78;;;30.92;;
25231;SDS011;13176;51.140;6.290;2023-12-22T02:00:49;35.60;;;33.13;;
25231;SDS011;13176;51.140;6.290;2023-12-22T02:03:16;35.72;;;33.13;;
25231;SDS011;13176;51.140;6.290;2023-12-22T02:05:43;38.67;;;35.08;;
25231;SDS011;13176;51.140;6.290;2023-12-22T02:08:11;36.22;;;33.15;;
25231;SDS011;13176;51.140;6.290;2023-12-22T02:10:38;39.10;;;35.75;;
25231;SDS011;13176;51.140;6.290;2023-12-22T02:13:05;34.35;;;32.00;;
25231;SDS011;13176;51.140;6.290;2023-12-22T02:15:32;37.05;;;33.45;;
25231;SDS011;13176;51.140;6.290;2023-12-22T02:18:07;35.92;;;32.40;;
25231;SDS011;13176;51.140;6.290;2023-12-22T02:20:37;36.13;;;33.60;;
25231;SDS011;13176;51.140;6.290;2023-12-22T02:23:04;37.17;;;33.92;;
25231;SDS011;13176;51.140;6.290;2023-12-22T02:25:30;34.53;;;31.55;;
25231;SDS011;13176;51.140;6.290;2023-12-22T02:33:05;30.15;;;27.50;;
25231;SDS011;13176;51.140;6.290;2023-12-22T02:35:35;31.33;;;28.23;;
25231;SDS011;13176;51.140;6.290;2023-12-22T02:38:03;27.38;;;25.10;;
25231;SDS011;13176;51.140;6.290;2023-12-22T02:40:31;28.58;;;26.33;;
25231;SDS011;13176;51.140;6.290;2023-12-22T02:43:00;26.20;;;23.83;;
25231;SDS011;13176;51.140;6.290;2023-12-22T02:45:28;25.90;;;23.08;;
25231;SDS011;13176;51.140;6.290;2023-12-22T02:47:56;24.75;;;22.20;;
25231;SDS011;13176;51.140;6.290;2023-12-22T02:50:23;26.83;;;23.60;;
25231;SDS011;13176;51.140;6.290;2023-12-22T02:52:49;22.90;;;20.90;;
25231;SDS011;13176;51.140;6.290;2023-12-22T02:55:16;22.23;;;20.23;;
25231;SDS011;13176;51.140;6.290;2023-12-22T02:57:42;21.90;;;19.08;;
25231;SDS011;13176;51.140;6.290;2023-12-22T03:00:09;20.25;;;18.38;;
25231;SDS011;13176;51.140;6.290;2023-12-22T03:02:36;22.27;;;18.65;;
25231;SDS011;13176;51.140;6.290;2023-12-22T03:05:02;20.20;;;18.30;;
25231;SDS011;13176;51.140;6.290;2023-12-22T03:07:29;20.83;;;18.60;;
25231;SDS011;13176;51.140;6.290;2023-12-22T03:09:56;25.77;;;20.75;;
25231;SDS011;13176;51.140;6.290;2023-12-22T03:12:22;24.10;;;19.80;;
25231;SDS011;13176;51.140;6.290;2023-12-22T03:14:49;22.58;;;20.38;;
25231;SDS011;13176;51.140;6.290;2023-12-22T03:17:15;25.33;;;20.02;;
25231;SDS011;13176;51.140;6.290;2023-12-22T03:19:42;24.80;;;22.08;;
25231;SDS011;13176;51.140;6.290;2023-12-22T03:22:08;26.65;;;24.10;;
25231;SDS011;13176;51.140;6.290;2023-12-22T03:24:34;32.25;;;29.65;;
25231;SDS011;13176;51.140;6.290;2023-12-22T03:27:02;24.80;;;19.95;;
25231;SDS011;13176;51.140;6.290;2023-12-22T03:29:29;24.33;;;22.35;;
25231;SDS011;13176;51.140;6.290;2023-12-22T03:31:55;27.92;;;25.40;;
25231;SDS011;13176;51.140;6.290;2023-12-22T03:34:22;23.85;;;21.50;;
25231;SDS011;13176;51.140;6.290;2023-12-22T03:36:48;21.63;;;19.77;;
25231;SDS011;13176;51.140;6.290;2023-12-22T03:39:15;20.20;;;17.92;;
25231;SDS011;13176;51.140;6.290;2023-12-22T03:41:42;20.08;;;18.45;;
25231;SDS011;13176;51.140;6.290;2023-12-22T03:44:09;19.42;;;17.48;;
25231;SDS011;13176;51.140;6.290;2023-12-22T03:46:35;21.50;;;19.20;;
25231;SDS011;13176;51.140;6.290;2023-12-22T03:49:02;21.88;;;19.83;;
25231;SDS011;13176;51.140;6.290;2023-12-22T03:51:29;17.38;;;15.85;;
25231;SDS011;13176;51.140;6.290;2023-12-22T03:53:55;16.05;;;14.82;;
25231;SDS011;13176;51.140;6.290;2023-12-22T03:56:21;19.92;;;17.83;;
25231;SDS011;13176;51.140;6.290;2023-12-22T03:58:48;19.83;;;15.93;;
25231;SDS011;13176;51.140;6.290;2023-12-22T04:01:14;17.90;;;16.23;;
25231;SDS011;13176;51.140;6.290;2023-12-22T04:03:41;20.73;;;16.13;;
25231;SDS011;13176;51.140;6.290;2023-12-22T04:06:07;21.00;;;17.67;;
25231;SDS011;13176;51.140;6.290;2023-12-22T04:08:34;22.75;;;16.25;;
25231;SDS011;13176;51.140;6.290;2023-12-22T04:11:00;18.20;;;16.42;;
25231;SDS011;13176;51.140;6.290;2023-12-22T04:13:27;17.90;;;16.15;;
25231;SDS011;13176;51.140;6.290;2023-12-22T04:15:53;17.95;;;16.30;;
25231;SDS011;13176;51.140;6.290;2023-12-22T04:18:19;18.33;;;16.52;;
25231;SDS011;13176;51.140;6.290;2023-12-22T04:20:46;19.63;;;16.60;;
25231;SDS011;13176;51.140;6.290;2023-12-22T04:23:15;24.70;;;18.23;;
25231;SDS011;13176;51.140;6.290;2023-12-22T04:25:42;19.27;;;17.33;;
25231;SDS011;13176;51.140;6.290;2023-12-22T04:28:08;19.95;;;17.90;;
25231;SDS011;13176;51.140;6.290;2023-12-22T04:30:35;19.73;;;16.75;;
25231;SDS011;13176;51.140;6.290;2023-12-22T04:33:01;19.05;;;17.20;;
25231;SDS011;13176;51.140;6.290;2023-12-22T04:35:28;20.10;;;18.20;;
25231;SDS011;13176;51.140;6.290;2023-12-22T04:37:55;24.15;;;18.42;;
25231;SDS011;13176;51.140;6.290;2023-12-22T04:40:21;21.02;;;18.40;;
25231;SDS011;13176;51.140;6.290;2023-12-22T04:42:48;19.75;;;17.90;;
25231;SDS011;13176;51.140;6.290;2023-12-22T04:45:15;19.63;;;17.70;;
25231;SDS011;13176;51.140;6.290;2023-12-22T04:47:43;23.52;;;20.70;;
25231;SDS011;13176;51.140;6.290;2023-12-22T04:50:10;20.15;;;18.20;;
25231;SDS011;13176;51.140;6.290;2023-12-22T04:52:36;22.67;;;20.75;;
25231;SDS011;13176;51.140;6.290;2023-12-22T04:55:03;21.83;;;19.73;;
25231;SDS011;13176;51.140;6.290;2023-12-22T04:57:30;20.88;;;18.70;;
25231;SDS011;13176;51.140;6.290;2023-12-22T04:59:56;24.80;;;22.60;;
25231;SDS011;13176;51.140;6.290;2023-12-22T05:02:22;16.65;;;15.10;;
25231;SDS011;13176;51.140;6.290;2023-12-22T05:04:49;19.95;;;17.90;;
25231;SDS011;13176;51.140;6.290;2023-12-22T05:07:16;20.00;;;17.88;;
25231;SDS011;13176;51.140;6.290;2023-12-22T05:09:42;18.75;;;16.80;;
25231;SDS011;13176;51.140;6.290;2023-12-22T05:12:09;32.90;;;29.95;;
25231;SDS011;13176;51.140;6.290;2023-12-22T05:14:35;17.48;;;15.63;;
25231;SDS011;13176;51.140;6.290;2023-12-22T05:17:02;20.77;;;17.50;;
25231;SDS011;13176;51.140;6.290;2023-12-22T05:19:28;17.80;;;16.08;;
25231;SDS011;13176;51.140;6.290;2023-12-22T05:21:55;23.17;;;16.02;;
25231;SDS011;13176;51.140;6.290;2023-12-22T05:24:23;15.38;;;13.90;;
25231;SDS011;13176;51.140;6.290;2023-12-22T05:26:49;18.90;;;13.93;;
25231;SDS011;13176;51.140;6.290;2023-12-22T05:29:18;18.13;;;14.13;;
25231;SDS011;13176;51.140;6.290;2023-12-22T05:31:47;16.80;;;14.75;;
25231;SDS011;13176;51.140;6.290;2023-12-22T05:34:13;16.38;;;14.27;;
25231;SDS011;13176;51.140;6.290;2023-12-22T05:36:40;17.00;;;14.27;;
25231;SDS011;13176;51.140;6.290;2023-12-22T05:39:06;15.50;;;13.63;;
25231;SDS011;13176;51.140;6.290;2023-12-22T05:41:35;17.17;;;13.65;;
25231;SDS011;13176;51.140;6.290;2023-12-22T05:44:05;15.15;;;13.70;;
25231;SDS011;13176;51.140;6.290;2023-12-22T05:46:36;18.77;;;16.88;;
25231;SDS011;13176;51.140;6.290;2023-12-22T05:49:04;26.25;;;14.02;;
25231;SDS011;13176;51.140;6.290;2023-12-22T05:51:37;17.08;;;12.85;;
25231;SDS011;13176;51.140;6.290;2023-12-22T05:54:07;15.77;;;12.25;;
25231;SDS011;13176;51.140;6.290;2023-12-22T05:56:34;14.57;;;11.98;;
25231;SDS011;13176;51.140;6.290;2023-12-22T05:59:01;13.88;;;12.07;;
25231;SDS011;13176;51.140;6.290;2023-12-22T06:01:27;16.33;;;12.20;;
25231;SDS011;13176;51.140;6.290;2023-12-22T06:03:54;19.13;;;12.10;;
25231;SDS011;13176;51.140;6.290;2023-12-22T06:06:21;16.00;;;11.82;;
25231;SDS011;13176;51.140;6.290;2023-12-22T06:08:47;15.98;;;13.27;;
25231;SDS011;13176;51.140;6.290;2023-12-22T06:11:14;17.13;;;11.90;;
25231;SDS011;13176;51.140;6.290;2023-12-22T06:13:40;17.67;;;13.07;;
25231;SDS011;13176;51.140;6.290;2023-12-22T06:16:11;26.90;;;17.48;;
25231;SDS011;13176;51.140;6.290;2023-12-22T06:18:38;12.48;;;11.25;;
25231;SDS011;13176;51.140;6.290;2023-12-22T06:21:05;12.90;;;11.57;;
25231;SDS011;13176;51.140;6.290;2023-12-22T06:23:31;18.38;;;14.02;;
25231;SDS011;13176;51.140;6.290;2023-12-22T06:25:59;21.95;;;17.05;;
25231;SDS011;13176;51.140;6.290;2023-12-22T06:28:28;22.40;;;20.27;;
25231;SDS011;13176;51.140;6.290;2023-12-22T06:30:55;22.88;;;21.00;;
25231;SDS011;13176;51.140;6.290;2023-12-22T06:33:21;21.27;;;19.60;;
25231;SDS011;13176;51.140;6.290;2023-12-22T06:35:48;19.65;;;17.95;;
25231;SDS011;13176;51.140;6.290;2023-12-22T06:38:19;19.20;;;17.77;;
25231;SDS011;13176;51.140;6.290;2023-12-22T06:40:46;19.13;;;17.08;;
25231;SDS011;13176;51.140;6.290;2023-12-22T06:43:15;19.75;;;17.80;;
25231;SDS011;13176;51.140;6.290;2023-12-22T06:45:41;21.55;;;19.50;;
25231;SDS011;13176;51.140;6.290;2023-12-22T06:48:08;21.30;;;18.38;;
25231;SDS011;13176;51.140;6.290;2023-12-22T06:50:37;32.75;;;24.25;;
25231;SDS011;13176;51.140;6.290;2023-12-22T06:53:06;31.15;;;21.65;;
25231;SDS011;13176;51.140;6.290;2023-12-22T06:55:47;31.42;;;24.23;;
25231;SDS011;13176;51.140;6.290;2023-12-22T06:58:14;32.88;;;24.50;;
25231;SDS011;13176;51.140;6.290;2023-12-22T07:00:41;31.13;;;22.98;;
25231;SDS011;13176;51.140;6.290;2023-12-22T07:03:07;29.73;;;24.05;;
25231;SDS011;13176;51.140;6.290;2023-12-22T07:05:34;33.35;;;25.17;;
25231;SDS011;13176;51.140;6.290;2023-12-22T07:08:02;30.85;;;23.30;;
25231;SDS011;13176;51.140;6.290;2023-12-22T07:10:30;30.92;;;25.20;;
25231;SDS011;13176;51.140;6.290;2023-12-22T07:12:57;54.95;;;49.17;;
25231;SDS011;13176;51.140;6.290;2023-12-22T07:15:24;30.58;;;23.55;;
25231;SDS011;13176;51.140;6.290;2023-12-22T07:17:50;34.53;;;25.42;;
25231;SDS011;13176;51.140;6.290;2023-12-22T07:20:17;30.05;;;22.67;;
25231;SDS011;13176;51.140;6.290;2023-12-22T07:22:46;31.77;;;25.83;;
25231;SDS011;13176;51.140;6.290;2023-12-22T07:25:13;30.00;;;23.17;;
25231;SDS011;13176;51.140;6.290;2023-12-22T07:27:40;29.95;;;25.48;;
25231;SDS011;13176;51.140;6.290;2023-12-22T07:30:07;40.50;;;25.73;;
25231;SDS011;13176;51.140;6.290;2023-12-22T07:32:34;31.17;;;24.98;;
25231;SDS011;13176;51.140;6.290;2023-12-22T07:35:00;36.80;;;26.80;;
25231;SDS011;13176;51.140;6.290;2023-12-22T07:37:27;31.70;;;25.33;;
25231;SDS011;13176;51.140;6.290;2023-12-22T07:39:54;29.60;;;25.00;;
25231;SDS011;13176;51.140;6.290;2023-12-22T07:42:21;41.78;;;24.83;;
25231;SDS011;13176;51.140;6.290;2023-12-22T07:44:50;31.90;;;23.35;;
25231;SDS011;13176;51.140;6.290;2023-12-22T07:47:16;40.83;;;25.50;;
25231;SDS011;13176;51.140;6.290;2023-12-22T07:49:43;39.53;;;26.33;;
25231;SDS011;13176;51.140;6.290;2023-12-22T07:52:10;34.72;;;26.70;;
25231;SDS011;13176;51.140;6.290;2023-12-22T07:54:37;37.90;;;30.80;;
25231;SDS011;13176;51.140;6.290;2023-12-22T07:57:05;36.60;;;26.00;;
25231;SDS011;13176;51.140;6.290;2023-12-22T07:59:34;40.33;;;28.45;;
25231;SDS011;13176;51.140;6.290;2023-12-22T08:02:02;33.60;;;26.10;;
25231;SDS011;13176;51.140;6.290;2023-12-22T08:04:29;42.55;;;27.90;;
25231;SDS011;13176;51.140;6.290;2023-12-22T08:06:56;37.97;;;27.58;;
25231;SDS011;13176;51.140;6.290;2023-12-22T08:09:22;32.13;;;26.48;;
25231;SDS011;13176;51.140;6.290;2023-12-22T08:11:49;37.22;;;26.48;;
25231;SDS011;13176;51.140;6.290;2023-12-22T08:14:19;45.55;;;26.60;;
25231;SDS011;13176;51.140;6.290;2023-12-22T08:16:45;39.42;;;25.00;;
25231;SDS011;13176;51.140;6.290;2023-12-22T08:19:12;42.38;;;27.27;;
25231;SDS011;13176;51.140;6.290;2023-12-22T08:21:39;36.70;;;29.48;;
25231;SDS011;13176;51.140;6.290;2023-12-22T08:24:11;32.00;;;25.33;;
25231;SDS011;13176;51.140;6.290;2023-12-22T08:26:48;32.75;;;25.98;;
25231;SDS011;13176;51.140;6.290;2023-12-22T08:29:15;38.58;;;25.65;;
25231;SDS011;13176;51.140;6.290;2023-12-22T08:31:42;36.60;;;25.98;;
25231;SDS011;13176;51.140;6.290;2023-12-22T08:34:10;34.15;;;26.60;;
25231;SDS011;13176;51.140;6.290;2023-12-22T08:36:37;34.75;;;26.85;;
25231;SDS011;13176;51.140;6.290;2023-12-22T08:39:04;34.38;;;25.70;;
25231;SDS011;13176;51.140;6.290;2023-12-22T08:41:34;34.78;;;25.88;;
25231;SDS011;13176;51.140;6.290;2023-12-22T08:44:04;37.78;;;25.73;;
25231;SDS011;13176;51.140;6.290;2023-12-22T08:46:33;32.30;;;27.55;;
25231;SDS011;13176;51.140;6.290;2023-12-22T08:49:00;33.88;;;25.63;;
25231;SDS011;13176;51.140;6.290;2023-12-22T08:51:27;32.88;;;24.95;;
25231;SDS011;13176;51.140;6.290;2023-12-22T08:53:53;29.90;;;26.67;;
25231;SDS011;13176;51.140;6.290;2023-12-22T08:56:21;34.08;;;28.58;;
25231;SDS011;13176;51.140;6.290;2023-12-22T08:58:48;30.75;;;27.58;;
25231;SDS011;13176;51.140;6.290;2023-12-22T09:01:18;38.38;;;30.45;;
25231;SDS011;13176;51.140;6.290;2023-12-22T09:03:45;31.25;;;27.25;;
25231;SDS011;13176;51.140;6.290;2023-12-22T09:06:16;30.23;;;24.00;;
25231;SDS011;13176;51.140;6.290;2023-12-22T09:08:43;40.05;;;26.17;;
25231;SDS011;13176;51.140;6.290;2023-12-22T09:11:11;42.42;;;31.90;;
25231;SDS011;13176;51.140;6.290;2023-12-22T09:13:38;33.88;;;26.20;;
25231;SDS011;13176;51.140;6.290;2023-12-22T09:16:05;29.80;;;26.60;;
25231;SDS011;13176;51.140;6.290;2023-12-22T09:18:31;35.40;;;27.10;;
25231;SDS011;13176;51.140;6.290;2023-12-22T09:20:59;29.60;;;25.98;;
25231;SDS011;13176;51.140;6.290;2023-12-22T09:23:27;32.67;;;26.77;;
25231;SDS011;13176;51.140;6.290;2023-12-22T09:25:53;31.88;;;24.48;;
25231;SDS011;13176;51.140;6.290;2023-12-22T09:28:20;35.65;;;27.45;;
25231;SDS011;13176;51.140;6.290;2023-12-22T09:30:47;32.60;;;29.05;;
25231;SDS011;13176;51.140;6.290;2023-12-22T09:33:13;31.25;;;27.92;;
25231;SDS011;13176;51.140;6.290;2023-12-22T09:35:40;31.10;;;27.67;;
25231;SDS011;13176;51.140;6.290;2023-12-22T09:38:08;30.15;;;27.05;;
25231;SDS011;13176;51.140;6.290;2023-12-22T09:40:36;30.95;;;27.75;;
25231;SDS011;13176;51.140;6.290;2023-12-22T09:43:03;28.17;;;25.23;;
25231;SDS011;13176;51.140;6.290;2023-12-22T09:45:32;30.75;;;27.63;;
25231;SDS011;13176;51.140;6.290;2023-12-22T09:48:00;29.35;;;26.70;;
25231;SDS011;13176;51.140;6.290;2023-12-22T09:50:27;31.00;;;28.08;;
25231;SDS011;13176;51.140;6.290;2023-12-22T09:52:55;28.77;;;26.02;;
25231;SDS011;13176;51.140;6.290;2023-12-22T09:55:21;31.15;;;28.38;;
25231;SDS011;13176;51.140;6.290;2023-12-22T09:57:49;29.02;;;27.02;;
25231;SDS011;13176;51.140;6.290;2023-12-22T10:00:16;32.70;;;30.17;;
25231;SDS011;13176;51.140;6.290;2023-12-22T10:02:44;33.60;;;30.90;;
25231;SDS011;13176;51.140;6.290;2023-12-22T10:05:12;32.97;;;30.15;;
25231;SDS011;13176;51.140;6.290;2023-12-22T10:07:42;34.65;;;31.67;;
25231;SDS011;13176;51.140;6.290;2023-12-22T10:10:11;32.47;;;30.02;;
25231;SDS011;13176;51.140;6.290;2023-12-22T10:12:38;51.78;;;48.33;;
25231;SDS011;13176;51.140;6.290;2023-12-22T10:15:07;44.25;;;41.05;;
25231;SDS011;13176;51.140;6.290;2023-12-22T10:17:35;40.25;;;37.50;;
25231;SDS011;13176;51.140;6.290;2023-12-22T10:20:03;40.92;;;38.13;;
25231;SDS011;13176;51.140;6.290;2023-12-22T10:22:30;42.88;;;39.47;;
25231;SDS011;13176;51.140;6.290;2023-12-22T10:24:56;43.85;;;40.70;;
25231;SDS011;13176;51.140;6.290;2023-12-22T10:27:23;43.40;;;40.38;;
25231;SDS011;13176;51.140;6.290;2023-12-22T10:29:50;47.83;;;44.92;;
25231;SDS011;13176;51.140;6.290;2023-12-22T10:32:20;45.58;;;42.28;;
25231;SDS011;13176;51.140;6.290;2023-12-22T10:34:48;140.20;;;128.25;;
25231;SDS011;13176;51.140;6.290;2023-12-22T10:37:17;113.63;;;104.03;;
25231;SDS011;13176;51.140;6.290;2023-12-22T10:39:44;48.90;;;45.78;;
25231;SDS011;13176;51.140;6.290;2023-12-22T10:42:14;79.25;;;70.80;;
25231;SDS011;13176;51.140;6.290;2023-12-22T10:44:41;78.55;;;72.38;;
25231;SDS011;13176;51.140;6.290;2023-12-22T10:47:09;75.28;;;69.82;;
25231;SDS011;13176;51.140;6.290;2023-12-22T10:49:36;42.75;;;40.03;;
25231;SDS011;13176;51.140;6.290;2023-12-22T10:52:03;46.65;;;43.72;;
25231;SDS011;13176;51.140;6.290;2023-12-22T10:54:33;45.08;;;42.28;;
25231;SDS011;13176;51.140;6.290;2023-12-22T10:57:02;48.90;;;45.97;;
25231;SDS011;13176;51.140;6.290;2023-12-22T10:59:29;47.25;;;43.75;;
25231;SDS011;13176;51.140;6.290;2023-12-22T11:01:57;41.67;;;39.10;;
25231;SDS011;13176;51.140;6.290;2023-12-22T11:04:29;44.78;;;42.00;;
25231;SDS011;13176;51.140;6.290;2023-12-22T11:09:31;32.97;;;30.55;;
25231;SDS011;13176;51.140;6.290;2023-12-22T11:11:59;68.90;;;61.83;;
25231;SDS011;13176;51.140;6.290;2023-12-22T11:14:27;54.63;;;51.28;;
25231;SDS011;13176;51.140;6.290;2023-12-22T11:16:57;84.22;;;57.28;;
25231;SDS011;13176;51.140;6.290;2023-12-22T11:19:26;33.67;;;31.42;;
25231;SDS011;13176;51.140;6.290;2023-12-22T11:21:53;33.72;;;31.55;;
25231;SDS011;13176;51.140;6.290;2023-12-22T11:24:21;32.60;;;30.65;;
25231;SDS011;13176;51.140;6.290;2023-12-22T11:26:47;27.33;;;25.58;;
25231;SDS011;13176;51.140;6.290;2023-12-22T11:29:17;28.73;;;26.83;;
25231;SDS011;13176;51.140;6.290;2023-12-22T11:31:47;28.42;;;26.73;;
25231;SDS011;13176;51.140;6.290;2023-12-22T11:34:16;26.83;;;24.95;;
25231;SDS011;13176;51.140;6.290;2023-12-22T11:36:59;27.80;;;25.92;;
25231;SDS011;13176;51.140;6.290;2023-12-22T11:39:27;169.57;;;93.88;;
25231;SDS011;13176;51.140;6.290;2023-12-22T11:41:53;30.65;;;28.75;;
25231;SDS011;13176;51.140;6.290;2023-12-22T11:44:21;33.00;;;31.15;;
25231;SDS011;13176;51.140;6.290;2023-12-22T11:46:48;46.30;;;43.40;;
25231;SDS011;13176;51.140;6.290;2023-12-22T11:49:15;41.45;;;38.72;;
25231;SDS011;13176;51.140;6.290;2023-12-22T11:51:42;28.85;;;27.05;;
25231;SDS011;13176;51.140;6.290;2023-12-22T11:59:54;37.55;;;35.13;;
25231;SDS011;13176;51.140;6.290;2023-12-22T12:02:26;30.35;;;28.27;;
25231;SDS011;13176;51.140;6.290;2023-12-22T12:05:01;31.92;;;29.65;;
25231;SDS011;13176;51.140;6.290;2023-12-22T12:10:10;26.52;;;24.92;;
25231;SDS011;13176;51.140;6.290;2023-12-22T12:13:04;33.35;;;31.17;;
25231;SDS011;13176;51.140;6.290;2023-12-22T12:18:01;33.75;;;31.40;;
25231;SDS011;13176;51.140;6.290;2023-12-22T12:20:29;31.40;;;29.52;;
25231;SDS011;13176;51.140;6.290;2023-12-22T12:22:56;32.25;;;30.38;;
25231;SDS011;13176;51.140;6.290;2023-12-22T12:25:23;33.47;;;31.38;;
25231;SDS011;13176;51.140;6.290;2023-12-22T12:28:03;32.03;;;29.88;;
25231;SDS011;13176;51.140;6.290;2023-12-22T12:30:36;24.25;;;22.85;;
25231;SDS011;13176;51.140;6.290;2023-12-22T12:33:08;27.48;;;25.67;;
25231;SDS011;13176;51.140;6.290;2023-12-22T12:35:39;26.63;;;24.80;;
25231;SDS011;13176;51.140;6.290;2023-12-22T12:38:11;30.02;;;28.23;;
25231;SDS011;13176;51.140;6.290;2023-12-22T12:40:39;22.10;;;20.52;;
25231;SDS011;13176;51.140;6.290;2023-12-22T12:43:07;20.77;;;19.45;;
25231;SDS011;13176;51.140;6.290;2023-12-22T12:45:33;23.85;;;22.27;;
25231;SDS011;13176;51.140;6.290;2023-12-22T12:48:01;29.55;;;27.70;;
25231;SDS011;13176;51.140;6.290;2023-12-22T12:50:33;25.30;;;23.65;;
25231;SDS011;13176;51.140;6.290;2023-12-22T12:52:59;24.08;;;22.67;;
25231;SDS011;13176;51.140;6.290;2023-12-22T12:55:26;23.05;;;21.55;;
25231;SDS011;13176;51.140;6.290;2023-12-22T12:57:54;23.67;;;22.27;;
25231;SDS011;13176;51.140;6.290;2023-12-22T13:00:28;20.38;;;19.15;;
25231;SDS011;13176;51.140;6.290;2023-12-22T13:03:04;21.92;;;20.52;;
25231;SDS011;13176;51.140;6.290;2023-12-22T13:05:33;22.45;;;21.02;;
25231;SDS011;13176;51.140;6.290;2023-12-22T13:08:07;28.38;;;26.10;;
25231;SDS011;13176;51.140;6.290;2023-12-22T13:10:38;21.42;;;20.13;;
25231;SDS011;13176;51.140;6.290;2023-12-22T13:13:06;21.25;;;19.92;;
25231;SDS011;13176;51.140;6.290;2023-12-22T13:15:33;28.75;;;26.88;;
25231;SDS011;13176;51.140;6.290;2023-12-22T13:18:00;29.38;;;27.40;;
25231;SDS011;13176;51.140;6.290;2023-12-22T13:20:27;22.65;;;21.00;;
25231;SDS011;13176;51.140;6.290;2023-12-22T13:22:54;23.73;;;22.23;;
25231;SDS011;13176;51.140;6.290;2023-12-22T13:25:21;37.03;;;34.50;;
25231;SDS011;13176;51.140;6.290;2023-12-22T13:27:50;23.63;;;22.08;;
25231;SDS011;13176;51.140;6.290;2023-12-22T13:30:35;24.63;;;23.00;;
25231;SDS011;13176;51.140;6.290;2023-12-22T13:33:04;24.52;;;22.73;;
25231;SDS011;13176;51.140;6.290;2023-12-22T13:35:31;24.48;;;22.98;;
25231;SDS011;13176;51.140;6.290;2023-12-22T13:37:57;29.63;;;27.67;;
25231;SDS011;13176;51.140;6.290;2023-12-22T13:40:25;23.15;;;21.70;;
25231;SDS011;13176;51.140;6.290;2023-12-22T13:42:58;22.15;;;20.75;;
25231;SDS011;13176;51.140;6.290;2023-12-22T13:45:25;24.45;;;22.83;;
25231;SDS011;13176;51.140;6.290;2023-12-22T13:47:52;21.30;;;20.00;;
25231;SDS011;13176;51.140;6.290;2023-12-22T13:50:19;19.38;;;18.10;;
25231;SDS011;13176;51.140;6.290;2023-12-22T13:52:49;19.95;;;18.55;;
25231;SDS011;13176;51.140;6.290;2023-12-22T13:55:17;23.65;;;22.08;;
25231;SDS011;13176;51.140;6.290;2023-12-22T13:57:45;17.45;;;16.15;;
25231;SDS011;13176;51.140;6.290;2023-12-22T14:02:50;16.02;;;15.00;;
25231;SDS011;13176;51.140;6.290;2023-12-22T14:05:17;14.25;;;13.35;;
25231;SDS011;13176;51.140;6.290;2023-12-22T14:07:44;22.88;;;21.40;;
25231;SDS011;13176;51.140;6.290;2023-12-22T14:10:11;23.60;;;21.98;;
25231;SDS011;13176;51.140;6.290;2023-12-22T14:12:38;24.33;;;22.83;;
25231;SDS011;13176;51.140;6.290;2023-12-22T14:17:33;18.98;;;17.60;;
25231;SDS011;13176;51.140;6.290;2023-12-22T14:19:59;20.13;;;18.73;;
25231;SDS011;13176;51.140;6.290;2023-12-22T14:22:26;19.63;;;18.15;;
25231;SDS011;13176;51.140;6.290;2023-12-22T14:24:53;20.88;;;19.48;;
25231;SDS011;13176;51.140;6.290;2023-12-22T14:27:22;22.27;;;20.73;;
25231;SDS011;13176;51.140;6.290;2023-12-22T14:29:50;25.15;;;23.42;;
25231;SDS011;13176;51.140;6.290;2023-12-22T14:32:16;22.10;;;20.38;;
25231;SDS011;13176;51.140;6.290;2023-12-22T14:34:46;21.85;;;20.00;;
25231;SDS011;13176;51.140;6.290;2023-12-22T14:37:12;20.00;;;18.58;;
25231;SDS011;13176;51.140;6.290;2023-12-22T14:39:39;24.15;;;22.45;;
25231;SDS011;13176;51.140;6.290;2023-12-22T14:42:06;25.50;;;23.67;;
25231;SDS011;13176;51.140;6.290;2023-12-22T14:44:32;26.73;;;24.83;;
25231;SDS011;13176;51.140;6.290;2023-12-22T14:46:59;23.95;;;22.50;;